Time;durP1;ratioP1;P1;durP2;ratioP2;P2;SDS_P1;SDS_P2;PMS_P1;PMS_P2;Temp;Humidity;BMP_temperature;BMP_pressure;BME280_temperature;BME280_humidity;BME280_pressure;Samples;Min_cycle;Max_cycle;Signal;HPM_P1;HPM_P2
2022/12/06 00:01:45;;;;;;;23.47;12.27;;;6.60;99.90;;;;;;5056250;23;20452;-67
2022/12/06 00:04:15;;;;;;;27.38;13.30;;;6.60;99.90;;;;;;4966098;28;20109;-74
2022/12/06 00:06:46;;;;;;;26.02;13.75;;;6.60;99.90;;;;;;4978958;28;20030;-70
2022/12/06 00:09:17;;;;;;;21.73;12.40;;;6.50;99.90;;;;;;4974463;28;20143;-67
2022/12/06 00:11:43;;;;;;;21.40;12.20;;;6.50;99.90;;;;;;4975971;28;20046;-68
2022/12/06 00:14:11;;;;;;;28.23;13.70;;;6.50;99.90;;;;;;4983184;28;20106;-65
2022/12/06 00:16:37;;;;;;;24.90;13.60;;;6.50;99.90;;;;;;4974721;28;20243;-69
2022/12/06 00:19:03;;;;;;;25.23;12.65;;;6.50;99.90;;;;;;4973597;28;20026;-72
2022/12/06 00:21:32;;;;;;;24.23;13.15;;;6.50;99.90;;;;;;4972341;28;20091;-69
2022/12/06 00:24:03;;;;;;;32.58;13.80;;;6.40;99.90;;;;;;4978455;28;20084;-74
2022/12/06 00:26:30;;;;;;;26.45;13.80;;;6.40;99.90;;;;;;4966978;28;20442;-65
2022/12/06 00:28:58;;;;;;;27.05;14.80;;;6.40;99.90;;;;;;4965475;28;20066;-66
2022/12/06 00:31:26;;;;;;;29.45;15.65;;;6.40;99.90;;;;;;4979747;28;20038;-63
2022/12/06 00:33:52;;;;;;;26.13;13.52;;;6.40;99.90;;;;;;4979615;28;20047;-65
2022/12/06 00:36:21;;;;;;;30.48;14.85;;;6.30;99.90;;;;;;4964779;28;20420;-65
2022/12/06 00:38:47;;;;;;;28.67;14.75;;;6.30;99.90;;;;;;4969480;28;20029;-65
2022/12/06 00:41:16;;;;;;;23.10;12.88;;;6.30;99.90;;;;;;4983750;28;20058;-65
2022/12/06 00:43:42;;;;;;;31.52;14.98;;;6.20;99.90;;;;;;4969173;28;20402;-72
2022/12/06 00:46:12;;;;;;;24.52;13.50;;;6.20;99.90;;;;;;4964527;28;20037;-65
2022/12/06 00:48:37;;;;;;;27.25;14.20;;;6.20;99.90;;;;;;4982262;28;20030;-65
2022/12/06 00:51:03;;;;;;;35.65;14.93;;;6.10;99.90;;;;;;4981216;28;20401;-65
2022/12/06 00:53:29;;;;;;;29.10;16.17;;;6.10;99.90;;;;;;4973261;28;20034;-65
2022/12/06 00:55:55;;;;;;;34.10;17.88;;;6.10;99.90;;;;;;4968967;28;20030;-65
2022/12/06 00:58:22;;;;;;;35.42;18.42;;;6.00;99.90;;;;;;4983275;28;20480;-72
2022/12/06 01:00:48;;;;;;;33.28;17.10;;;6.00;99.90;;;;;;4968041;28;20441;-66
2022/12/06 01:03:14;;;;;;;31.92;16.70;;;6.00;99.90;;;;;;4976754;28;20507;-66
2022/12/06 01:05:45;;;;;;;30.88;16.80;;;6.00;99.90;;;;;;4979669;28;20030;-69
2022/12/06 01:08:11;;;;;;;30.92;16.70;;;6.00;99.90;;;;;;4988729;28;20577;-65
2022/12/06 01:10:38;;;;;;;31.42;16.20;;;5.90;99.90;;;;;;4979383;28;20024;-70
2022/12/06 01:13:05;;;;;;;27.60;16.40;;;5.90;99.90;;;;;;4989958;28;20062;-70
2022/12/06 01:15:31;;;;;;;28.98;16.52;;;5.90;99.90;;;;;;4977936;28;20026;-76
2022/12/06 01:17:57;;;;;;;33.17;16.88;;;5.90;99.90;;;;;;4992541;28;20105;-67
2022/12/06 01:20:23;;;;;;;28.73;16.42;;;5.90;99.90;;;;;;4989466;28;20027;-71
2022/12/06 01:22:49;;;;;;;30.52;16.55;;;5.80;99.90;;;;;;4984432;28;20026;-66
2022/12/06 01:25:15;;;;;;;28.30;15.07;;;5.90;99.90;;;;;;4989574;28;20023;-66
2022/12/06 01:27:40;;;;;;;25.75;13.80;;;5.80;99.90;;;;;;4977073;28;20128;-66
2022/12/06 01:30:07;;;;;;;24.42;13.73;;;5.80;99.90;;;;;;4978662;28;20054;-68
2022/12/06 01:32:33;;;;;;;27.33;14.77;;;5.80;99.90;;;;;;4978906;28;20038;-68
2022/12/06 01:34:58;;;;;;;31.17;18.25;;;5.80;99.90;;;;;;4997363;28;20041;-65
2022/12/06 01:37:24;;;;;;;33.33;16.75;;;5.80;99.90;;;;;;4987411;28;20030;-65
2022/12/06 01:39:50;;;;;;;25.75;15.63;;;5.80;99.90;;;;;;4979575;28;20396;-67
2022/12/06 01:42:16;;;;;;;26.85;14.95;;;5.80;99.90;;;;;;4989895;28;20483;-70
2022/12/06 01:44:44;;;;;;;31.33;14.82;;;5.80;99.90;;;;;;4979321;28;20057;-67
2022/12/06 01:47:24;;;;;;;25.05;14.93;;;5.80;99.90;;;;;;4979226;28;20045;-68
2022/12/06 01:49:59;;;;;;;27.88;14.27;;;5.80;99.90;;;;;;4992346;28;20029;-75
2022/12/06 01:52:48;;;;;;;28.33;14.88;;;5.80;99.90;;;;;;4978681;28;20169;-76
2022/12/06 01:55:15;;;;;;;39.38;19.60;;;5.80;99.90;;;;;;4992123;28;20031;-71
2022/12/06 01:57:42;;;;;;;30.27;17.83;;;5.70;99.90;;;;;;4978215;28;20069;-76
2022/12/06 02:00:08;;;;;;;34.67;17.48;;;5.70;99.90;;;;;;4992589;28;20392;-64
2022/12/06 02:02:36;;;;;;;33.58;16.65;;;5.50;99.90;;;;;;4991163;28;20087;-66
2022/12/06 02:05:02;;;;;;;38.72;19.52;;;5.60;99.90;;;;;;4978790;28;20114;-74
2022/12/06 02:07:29;;;;;;;41.00;20.63;;;5.50;99.90;;;;;;4992363;28;20324;-68
2022/12/06 02:09:55;;;;;;;38.83;20.83;;;5.40;99.90;;;;;;4978230;28;20035;-65
2022/12/06 02:12:21;;;;;;;36.08;18.02;;;5.40;99.90;;;;;;4989260;28;20058;-65
2022/12/06 02:14:51;;;;;;;36.58;17.83;;;5.30;99.90;;;;;;4983696;28;20065;-73
2022/12/06 02:17:33;;;;;;;27.13;15.63;;;5.30;99.90;;;;;;4981764;28;20039;-76
2022/12/06 02:20:26;;;;;;;25.58;15.10;;;5.30;99.90;;;;;;4984631;28;20030;-66
2022/12/06 02:23:22;;;;;;;27.83;14.90;;;5.30;99.90;;;;;;4981224;28;20022;-74
2022/12/06 02:26:12;;;;;;;28.60;14.75;;;5.30;99.90;;;;;;4979680;28;20031;-64
2022/12/06 02:29:16;;;;;;;31.77;15.98;;;5.20;99.90;;;;;;4986615;28;20377;-66
2022/12/06 02:31:52;;;;;;;27.40;14.70;;;5.30;99.90;;;;;;4915479;29;20185;-66
2022/12/06 02:34:27;;;;;;;29.40;16.17;;;5.20;99.90;;;;;;4915825;29;20538;-66
2022/12/06 02:36:59;;;;;;;28.77;14.45;;;5.20;99.90;;;;;;4915419;29;20028;-67
2022/12/06 02:39:35;;;;;;;30.63;16.88;;;5.20;99.90;;;;;;4916030;29;20083;-75
2022/12/06 02:42:06;;;;;;;28.02;15.13;;;5.30;99.90;;;;;;4914121;29;20631;-75
2022/12/06 02:44:52;;;;;;;26.83;13.85;;;5.30;99.90;;;;;;4914953;29;20039;-74
2022/12/06 02:47:23;;;;;;;31.42;17.83;;;5.30;99.90;;;;;;4915664;29;20078;-76
2022/12/06 02:49:53;;;;;;;31.58;16.83;;;5.30;99.90;;;;;;4915723;29;20024;-65
2022/12/06 02:52:25;;;;;;;27.67;15.50;;;5.30;99.90;;;;;;4915593;29;20091;-74
2022/12/06 02:54:54;;;;;;;27.98;14.18;;;5.30;99.90;;;;;;4915694;29;20047;-66
2022/12/06 02:57:44;;;;;;;26.42;13.75;;;5.40;99.90;;;;;;4915638;29;20499;-66
2022/12/06 03:00:31;;;;;;;24.63;13.85;;;5.40;99.90;;;;;;4914916;29;20048;-66
2022/12/06 03:03:39;;;;;;;24.52;14.13;;;5.50;99.90;;;;;;4915370;29;20084;-66
2022/12/06 03:06:35;;;;;;;29.40;13.48;;;5.50;99.90;;;;;;4839966;29;20536;-66
2022/12/06 03:09:04;;;;;;;23.05;13.20;;;5.50;99.90;;;;;;4930905;29;20043;-76
2022/12/06 03:12:02;;;;;;;24.02;13.05;;;5.60;99.90;;;;;;4934156;29;20628;-66
2022/12/06 03:14:39;;;;;;;24.40;13.48;;;5.60;99.90;;;;;;4934218;29;20031;-65
2022/12/06 03:17:33;;;;;;;27.05;15.10;;;5.60;99.90;;;;;;4933845;29;20052;-64
2022/12/06 03:20:07;;;;;;;26.35;14.85;;;5.60;99.90;;;;;;4934162;29;20039;-74
2022/12/06 03:22:38;;;;;;;24.20;13.52;;;5.70;99.90;;;;;;4933457;29;20031;-68
2022/12/06 03:25:05;;;;;;;23.10;13.13;;;5.70;99.90;;;;;;4934084;29;20027;-65
2022/12/06 03:27:32;;;;;;;25.85;14.70;;;5.80;99.90;;;;;;4933702;29;20046;-75
2022/12/06 03:30:02;;;;;;;25.98;14.35;;;5.70;99.90;;;;;;4933875;29;20131;-64
2022/12/06 03:32:32;;;;;;;29.27;14.23;;;5.80;99.90;;;;;;4933683;29;20049;-65
2022/12/06 03:35:04;;;;;;;27.10;14.80;;;5.80;99.90;;;;;;4933527;29;20439;-65
2022/12/06 03:37:32;;;;;;;28.05;16.05;;;5.90;99.90;;;;;;4933914;29;20394;-65
2022/12/06 03:40:09;;;;;;;24.17;14.32;;;6.00;99.90;;;;;;4933898;29;20107;-65
2022/12/06 03:42:35;;;;;;;32.92;15.43;;;6.00;99.90;;;;;;4985801;28;20061;-67
2022/12/06 03:45:02;;;;;;;30.10;14.15;;;6.00;99.90;;;;;;4980585;28;20023;-77
2022/12/06 03:47:53;;;;;;;24.80;14.95;;;6.10;99.90;;;;;;4981693;28;20041;-65
2022/12/06 03:50:34;;;;;;;27.50;14.48;;;6.10;99.90;;;;;;4974449;28;20027;-66
2022/12/06 03:53:01;;;;;;;31.35;14.68;;;6.00;99.90;;;;;;4989432;28;20085;-78
2022/12/06 03:55:27;;;;;;;20.67;13.50;;;6.00;99.90;;;;;;4985832;28;20027;-67
2022/12/06 03:57:53;;;;;;;58.00;29.95;;;6.10;99.90;;;;;;4987752;28;20038;-67
2022/12/06 04:00:19;;;;;;;85.85;41.55;;;6.00;99.90;;;;;;4975673;28;20054;-70
2022/12/06 04:02:45;;;;;;;108.88;52.70;;;6.00;99.90;;;;;;4983897;28;20080;-65
2022/12/06 04:05:11;;;;;;;54.92;32.03;;;6.10;99.90;;;;;;4973855;28;20462;-66
2022/12/06 04:07:37;;;;;;;40.30;22.80;;;6.10;99.90;;;;;;4979571;28;20049;-71
2022/12/06 04:10:04;;;;;;;49.53;28.08;;;6.00;99.90;;;;;;4981238;28;20639;-75
2022/12/06 04:15:18;;;;;;;38.03;21.33;;;5.90;99.90;;;;;;4973339;28;20089;-65
2022/12/06 04:23:02;;;;;;;28.33;15.13;;;5.80;99.90;;;;;;4975895;28;20061;-73
2022/12/06 04:23:19;;;;;;;24.15;14.25;;;5.90;99.90;;;;;;4980215;28;20049;-64
2022/12/06 04:25:45;;;;;;;27.00;13.45;;;6.00;99.90;;;;;;4973690;28;20050;-67
2022/12/06 04:39:11;;;;;;;24.35;13.35;;;6.30;99.90;;;;;;4986775;28;20034;-65
2022/12/06 04:44:22;;;;;;;26.08;14.30;;;6.30;99.90;;;;;;4978993;28;20061;-65
2022/12/06 04:46:48;;;;;;;28.00;16.70;;;6.40;99.90;;;;;;4980934;28;20441;-66
2022/12/06 04:49:14;;;;;;;29.90;15.65;;;6.40;99.90;;;;;;4977293;28;20389;-65
2022/12/06 04:51:40;;;;;;;28.67;14.80;;;6.40;99.90;;;;;;4982714;28;20037;-64
2022/12/06 04:54:06;;;;;;;29.65;16.63;;;6.40;99.90;;;;;;4974954;28;20097;-65
2022/12/06 04:56:32;;;;;;;28.88;13.65;;;6.40;99.90;;;;;;4983445;28;20035;-75
2022/12/06 04:58:58;;;;;;;25.02;13.38;;;6.50;99.90;;;;;;4972615;28;20080;-71
2022/12/06 05:01:24;;;;;;;32.20;19.27;;;6.50;99.90;;;;;;4981069;28;20027;-70
2022/12/06 05:03:49;;;;;;;28.08;16.00;;;6.50;99.90;;;;;;4986408;28;20051;-68
2022/12/06 05:06:15;;;;;;;33.70;20.73;;;6.50;99.90;;;;;;4976976;28;20034;-64
2022/12/06 05:08:41;;;;;;;27.20;17.15;;;6.50;99.90;;;;;;4980063;28;20030;-66
2022/12/06 05:11:07;;;;;;;27.15;16.77;;;6.50;99.90;;;;;;4978995;28;20496;-65
2022/12/06 05:13:33;;;;;;;30.48;17.58;;;6.60;99.90;;;;;;4977829;28;20082;-66
2022/12/06 05:16:02;;;;;;;25.83;14.98;;;6.60;99.90;;;;;;4987840;28;20022;-65
2022/12/06 05:18:28;;;;;;;24.73;14.38;;;6.60;99.90;;;;;;4984689;28;20042;-71
2022/12/06 05:21:09;;;;;;;25.75;14.13;;;6.50;99.90;;;;;;4976266;28;20023;-69
2022/12/06 05:23:36;;;;;;;27.63;16.00;;;6.60;99.90;;;;;;4972682;28;20568;-64
2022/12/06 05:26:04;;;;;;;27.50;15.68;;;6.60;99.90;;;;;;4972832;28;20123;-76
2022/12/06 05:28:31;;;;;;;25.60;15.65;;;6.60;99.90;;;;;;4972739;28;20055;-65
2022/12/06 05:30:57;;;;;;;30.08;16.40;;;6.60;99.90;;;;;;4976323;28;20031;-66
2022/12/06 05:33:23;;;;;;;29.98;15.85;;;6.60;99.90;;;;;;4980437;28;20042;-65
2022/12/06 05:35:49;;;;;;;25.95;16.13;;;6.60;99.90;;;;;;4977309;28;20466;-66
2022/12/06 05:38:15;;;;;;;30.95;16.17;;;6.60;99.90;;;;;;4979975;28;20046;-73
2022/12/06 05:40:43;;;;;;;27.40;14.95;;;6.60;99.90;;;;;;4979165;28;20023;-71
2022/12/06 05:43:09;;;;;;;26.67;15.98;;;6.60;99.90;;;;;;4977767;28;20029;-67
2022/12/06 05:45:36;;;;;;;34.25;18.30;;;6.60;99.90;;;;;;4982468;28;20027;-65
2022/12/06 05:48:03;;;;;;;35.33;20.80;;;6.60;99.90;;;;;;4979622;28;20061;-68
2022/12/06 05:50:29;;;;;;;35.60;20.75;;;6.60;99.90;;;;;;4986313;28;20469;-76
2022/12/06 05:52:59;;;;;;;38.22;18.85;;;6.60;99.90;;;;;;4978083;28;20086;-74
2022/12/06 05:55:25;;;;;;;36.60;17.52;;;6.60;99.90;;;;;;4986875;28;20059;-69
2022/12/06 05:57:51;;;;;;;39.22;23.35;;;6.60;99.90;;;;;;4976613;28;20027;-77
2022/12/06 06:00:18;;;;;;;40.35;22.60;;;6.70;99.90;;;;;;4990659;28;20042;-71
2022/12/06 06:02:44;;;;;;;36.90;21.90;;;6.70;99.90;;;;;;4987259;28;20077;-73
2022/12/06 06:05:11;;;;;;;39.95;21.70;;;6.70;99.90;;;;;;4975887;28;20492;-76
2022/12/06 06:07:37;;;;;;;35.72;20.67;;;6.80;99.90;;;;;;4989384;28;20168;-66
2022/12/06 06:10:05;;;;;;;56.13;32.22;;;6.80;99.90;;;;;;4975974;28;20098;-68
2022/12/06 06:12:31;;;;;;;42.22;24.92;;;6.90;99.90;;;;;;4989511;28;20031;-68
2022/12/06 06:14:56;;;;;;;45.47;27.10;;;6.90;99.90;;;;;;4975775;28;20035;-65
2022/12/06 06:17:23;;;;;;;45.30;26.17;;;6.80;99.90;;;;;;4989411;28;20483;-72
2022/12/06 06:19:49;;;;;;;54.63;33.70;;;6.90;99.90;;;;;;4975857;28;20022;-68
2022/12/06 06:22:15;;;;;;;75.05;43.72;;;6.80;99.90;;;;;;4989027;28;20030;-78
2022/12/06 06:24:41;;;;;;;37.97;21.70;;;6.80;99.90;;;;;;4975536;28;20026;-67
2022/12/06 06:27:08;;;;;;;36.88;22.15;;;6.80;99.90;;;;;;4988015;28;20030;-67
2022/12/06 06:29:34;;;;;;;47.17;27.33;;;6.90;99.90;;;;;;4975919;28;20053;-69
2022/12/06 06:32:00;;;;;;;41.38;22.95;;;6.90;99.90;;;;;;4985861;28;20042;-77
2022/12/06 06:34:26;;;;;;;42.17;24.00;;;7.00;99.90;;;;;;4977037;28;20605;-75
2022/12/06 06:36:51;;;;;;;40.92;24.50;;;7.00;99.90;;;;;;4983335;28;20113;-77
2022/12/06 06:39:18;;;;;;;59.78;36.78;;;7.00;99.90;;;;;;4978942;28;20126;-78
2022/12/06 06:41:44;;;;;;;43.92;27.15;;;6.90;99.90;;;;;;4981140;28;20027;-73
2022/12/06 06:44:11;;;;;;;44.00;27.40;;;6.90;99.90;;;;;;4980832;28;20037;-74
2022/12/06 06:46:36;;;;;;;43.65;27.77;;;6.90;99.90;;;;;;4979389;28;20026;-76
2022/12/06 06:49:03;;;;;;;46.78;29.58;;;7.00;99.90;;;;;;4982702;28;20046;-76
2022/12/06 06:51:30;;;;;;;39.40;24.90;;;7.00;99.90;;;;;;4977317;28;20040;-77
2022/12/06 06:53:56;;;;;;;36.53;17.80;;;7.10;99.90;;;;;;4984136;28;20022;-78
2022/12/06 06:56:22;;;;;;;34.75;19.65;;;7.20;99.90;;;;;;4975589;28;20039;-77
2022/12/06 06:58:48;;;;;;;36.67;17.73;;;7.20;99.90;;;;;;4986560;28;20085;-67
2022/12/06 07:01:19;;;;;;;32.20;16.48;;;7.20;99.90;;;;;;4974967;28;20477;-77
2022/12/06 07:03:46;;;;;;;35.17;16.33;;;7.20;99.90;;;;;;4988481;28;20065;-76
2022/12/06 07:06:12;;;;;;;32.72;16.88;;;7.20;99.90;;;;;;4975203;28;20388;-78
2022/12/06 07:08:40;;;;;;;34.78;18.60;;;7.30;99.90;;;;;;4988668;28;20084;-77
2022/12/06 07:11:09;;;;;;;34.38;16.77;;;7.30;99.90;;;;;;4975064;28;20094;-76
2022/12/06 07:13:37;;;;;;;32.05;16.67;;;7.20;99.90;;;;;;4988015;28;20112;-69
2022/12/06 07:16:05;;;;;;;30.27;16.30;;;7.20;99.90;;;;;;4974614;28;20073;-66
2022/12/06 07:18:31;;;;;;;38.17;21.50;;;7.20;99.90;;;;;;4985142;28;20405;-74
2022/12/06 07:21:05;;;;;;;39.85;19.73;;;7.30;99.90;;;;;;4990207;28;20290;-78
2022/12/06 07:23:32;;;;;;;40.03;19.83;;;7.30;99.90;;;;;;4974768;28;20034;-75
2022/12/06 07:26:25;;;;;;;38.25;20.60;;;7.40;99.90;;;;;;4988327;28;20023;-78
2022/12/06 07:28:51;;;;;;;35.42;18.88;;;7.40;99.90;;;;;;4974384;28;20049;-77
2022/12/06 07:31:20;;;;;;;35.40;19.90;;;7.50;99.90;;;;;;4988532;28;20466;-77
2022/12/06 07:33:47;;;;;;;35.17;21.70;;;7.60;99.90;;;;;;4975384;28;20030;-76
2022/12/06 07:36:14;;;;;;;35.38;22.20;;;7.60;99.90;;;;;;4988511;28;20034;-79
2022/12/06 07:38:42;;;;;;;36.38;21.25;;;7.70;99.90;;;;;;4984295;28;20520;-79
2022/12/06 07:46:43;;;;;;;38.65;22.10;;;7.90;99.90;;;;;;4987639;28;20019;-68
2022/12/06 07:49:09;;;;;;;36.13;21.38;;;8.00;99.90;;;;;;4974090;28;20110;-66
2022/12/06 07:51:36;;;;;;;34.58;19.25;;;8.20;99.90;;;;;;4987440;28;20117;-69
2022/12/06 07:54:02;;;;;;;32.08;19.00;;;8.40;99.90;;;;;;4974485;28;20023;-66
2022/12/06 07:56:28;;;;;;;34.72;19.38;;;8.60;99.90;;;;;;4987314;28;20034;-71
2022/12/06 07:58:54;;;;;;;34.30;20.67;;;8.60;99.90;;;;;;4973855;28;20034;-66
2022/12/06 08:01:26;;;;;;;40.38;23.35;;;8.60;99.90;;;;;;4980907;28;20022;-78
2022/12/06 08:03:54;;;;;;;41.92;24.48;;;8.70;99.90;;;;;;4991276;28;20078;-74
2022/12/06 08:06:23;;;;;;;39.40;23.92;;;8.90;99.90;;;;;;4985612;28;20125;-65
2022/12/06 08:08:49;;;;;;;37.20;23.23;;;9.00;99.90;;;;;;4986248;28;20543;-67
2022/12/06 08:11:15;;;;;;;48.85;32.72;;;8.90;99.90;;;;;;4987634;28;20038;-79
2022/12/06 08:13:41;;;;;;;42.70;26.08;;;8.80;99.90;;;;;;4985831;28;20026;-77
2022/12/06 08:16:13;;;;;;;27.80;17.55;;;8.70;99.90;;;;;;4987304;28;20115;-68
2022/12/06 08:18:40;;;;;;;29.15;17.27;;;8.30;99.90;;;;;;4974940;28;20015;-67
2022/12/06 08:21:07;;;;;;;30.35;16.88;;;8.00;99.90;;;;;;4990446;28;20471;-65
2022/12/06 08:23:33;;;;;;;27.67;15.90;;;7.90;99.90;;;;;;4986147;28;20026;-69
2022/12/06 08:26:11;;;;;;;33.88;15.15;;;7.80;99.90;;;;;;4975200;28;20126;-65
2022/12/06 08:28:37;;;;;;;25.75;14.75;;;7.60;99.90;;;;;;4973493;28;20062;-65
2022/12/06 08:31:08;;;;;;;24.73;15.18;;;7.60;99.90;;;;;;4971295;28;20034;-79
2022/12/06 08:33:34;;;;;;;22.65;13.95;;;7.70;99.90;;;;;;4986748;28;20466;-66
2022/12/06 08:36:07;;;;;;;25.05;14.73;;;7.60;99.90;;;;;;4971211;28;20053;-66
2022/12/06 08:38:33;;;;;;;31.08;14.45;;;7.60;99.90;;;;;;4977234;28;20026;-65
2022/12/06 08:40:59;;;;;;;24.27;14.85;;;7.60;99.90;;;;;;4976659;28;20055;-65
2022/12/06 08:43:25;;;;;;;27.90;15.07;;;7.70;99.90;;;;;;4984150;28;20504;-63
2022/12/06 08:45:51;;;;;;;26.85;15.60;;;7.70;99.90;;;;;;4992339;28;20031;-67
2022/12/06 08:48:17;;;;;;;25.48;14.88;;;7.80;99.90;;;;;;4973796;28;20019;-73
2022/12/06 08:50:43;;;;;;;25.17;13.55;;;7.90;99.90;;;;;;4980332;28;20034;-64
2022/12/06 08:53:09;;;;;;;22.75;12.07;;;8.00;99.90;;;;;;4981496;28;20489;-69
2022/12/06 08:55:35;;;;;;;23.13;14.57;;;8.10;99.90;;;;;;4973522;28;20085;-64
2022/12/06 08:58:00;;;;;;;23.80;13.93;;;8.30;99.90;;;;;;4974271;28;20030;-73
2022/12/06 09:00:26;;;;;;;23.27;13.77;;;8.40;99.90;;;;;;4972647;28;20531;-68
2022/12/06 09:02:52;;;;;;;26.13;12.68;;;8.50;99.90;;;;;;4988066;28;20075;-67
2022/12/06 09:05:18;;;;;;;23.48;13.98;;;8.50;99.90;;;;;;4983785;28;20038;-64
2022/12/06 09:07:44;;;;;;;25.98;14.30;;;8.50;99.90;;;;;;4973584;28;20034;-69
2022/12/06 09:10:11;;;;;;;32.65;16.63;;;8.40;99.90;;;;;;4990335;28;20034;-66
2022/12/06 09:12:37;;;;;;;28.02;16.73;;;8.30;99.90;;;;;;4990372;28;20129;-77
2022/12/06 09:15:04;;;;;;;25.77;15.60;;;8.30;99.90;;;;;;4975828;28;20472;-77
2022/12/06 09:17:29;;;;;;;25.80;14.80;;;8.40;99.90;;;;;;4976041;28;20113;-77
2022/12/06 09:19:55;;;;;;;24.42;14.60;;;8.30;99.90;;;;;;4973326;28;20110;-74
2022/12/06 09:22:21;;;;;;;27.63;15.30;;;8.20;99.90;;;;;;4976906;28;20042;-75
2022/12/06 09:24:47;;;;;;;26.50;15.05;;;8.30;99.90;;;;;;4989870;28;20500;-76
2022/12/06 09:27:13;;;;;;;26.23;14.48;;;8.30;99.90;;;;;;4976705;28;20027;-65
2022/12/06 09:29:39;;;;;;;34.10;15.60;;;8.30;99.90;;;;;;4987435;28;20106;-78
2022/12/06 09:32:05;;;;;;;23.83;14.98;;;8.40;99.90;;;;;;4991395;28;20441;-78
2022/12/06 09:34:31;;;;;;;25.98;14.55;;;8.40;99.90;;;;;;4982510;28;20072;-66
2022/12/06 09:37:04;;;;;;;26.70;15.13;;;8.40;99.90;;;;;;4984490;28;20110;-67
2022/12/06 09:39:35;;;;;;;26.00;15.02;;;8.40;99.90;;;;;;4976919;28;20365;-66
2022/12/06 09:42:16;;;;;;;28.05;15.88;;;8.50;99.90;;;;;;4986985;28;20062;-66
2022/12/06 09:45:05;;;;;;;27.52;15.45;;;8.50;99.90;;;;;;4977520;28;20022;-74
2022/12/06 09:47:39;;;;;;;27.52;15.15;;;8.60;99.90;;;;;;4929974;29;20123;-66
2022/12/06 09:50:29;;;;;;;28.98;16.27;;;8.60;99.90;;;;;;4923638;29;20043;-76
2022/12/06 09:53:22;;;;;;;26.48;15.55;;;8.70;99.90;;;;;;4930978;29;20181;-77
2022/12/06 09:55:51;;;;;;;34.17;17.85;;;8.70;99.90;;;;;;4933546;29;20067;-75
2022/12/06 09:58:34;;;;;;;25.48;15.38;;;8.70;99.90;;;;;;4933606;29;20036;-66
2022/12/06 10:01:24;;;;;;;31.25;17.73;;;8.70;99.90;;;;;;4932765;29;20406;-66
2022/12/06 10:03:58;;;;;;;33.90;18.10;;;8.80;99.90;;;;;;4931119;29;20048;-74
2022/12/06 10:06:33;;;;;;;27.15;15.70;;;8.80;99.90;;;;;;4918849;29;20538;-70
2022/12/06 10:09:07;;;;;;;28.30;16.02;;;8.80;99.90;;;;;;4934877;29;20032;-79
2022/12/06 10:11:47;;;;;;;31.10;18.77;;;8.80;99.90;;;;;;4932349;29;20051;-66
2022/12/06 10:14:23;;;;;;;32.10;19.30;;;8.80;99.90;;;;;;4934402;29;20039;-65
2022/12/06 10:17:01;;;;;;;40.80;21.55;;;8.80;99.90;;;;;;4935147;29;20494;-66
2022/12/06 10:19:36;;;;;;;33.25;18.20;;;8.90;99.90;;;;;;4935209;29;20031;-65
2022/12/06 10:22:13;;;;;;;36.22;19.38;;;8.90;99.90;;;;;;4935263;29;20043;-66
2022/12/06 10:25:09;;;;;;;29.98;18.35;;;8.90;99.90;;;;;;4963322;28;20117;-65
2022/12/06 10:27:41;;;;;;;33.40;19.25;;;8.90;99.90;;;;;;4977811;28;20034;-77
2022/12/06 10:30:12;;;;;;;30.98;19.52;;;8.90;99.90;;;;;;4983837;28;20069;-69
2022/12/06 10:32:51;;;;;;;33.67;18.70;;;9.00;99.90;;;;;;4973473;28;20374;-66
2022/12/06 10:35:33;;;;;;;29.27;18.52;;;9.00;99.90;;;;;;4983452;28;20053;-66
2022/12/06 10:38:27;;;;;;;32.20;19.58;;;9.10;99.90;;;;;;4976836;28;20038;-65
2022/12/06 10:41:14;;;;;;;32.33;21.10;;;9.10;99.90;;;;;;4979147;28;20034;-65
2022/12/06 10:43:48;;;;;;;33.90;21.88;;;9.20;99.90;;;;;;4982170;28;20117;-66
2022/12/06 10:49:34;;;;;;;35.88;22.05;;;9.10;99.90;;;;;;4986670;28;20034;-65
2022/12/06 10:52:23;;;;;;;32.08;21.40;;;9.30;99.90;;;;;;4974030;28;20039;-66
2022/12/06 10:55:03;;;;;;;36.83;20.80;;;9.30;99.90;;;;;;4986731;28;20035;-66
2022/12/06 10:57:46;;;;;;;35.10;20.45;;;9.50;99.90;;;;;;4982769;28;20554;-65
2022/12/06 11:00:26;;;;;;;33.50;20.70;;;9.40;99.90;;;;;;4985403;28;20037;-69
2022/12/06 11:03:06;;;;;;;43.15;25.25;;;9.50;99.90;;;;;;4983752;28;20049;-66
2022/12/06 11:05:46;;;;;;;41.25;26.35;;;9.50;99.90;;;;;;4977213;28;20026;-64
2022/12/06 11:08:40;;;;;;;38.10;24.40;;;9.40;99.90;;;;;;4982210;28;20108;-64
2022/12/06 11:11:14;;;;;;;40.60;23.38;;;9.40;99.90;;;;;;4975611;28;20034;-67
2022/12/06 11:13:48;;;;;;;33.72;22.05;;;9.40;99.90;;;;;;4987225;28;20121;-65
2022/12/06 11:16:33;;;;;;;37.20;22.98;;;9.50;99.90;;;;;;4980592;28;20031;-65
2022/12/06 11:19:25;;;;;;;32.72;22.70;;;9.50;99.90;;;;;;4977850;28;20504;-65
2022/12/06 11:22:07;;;;;;;37.42;21.40;;;9.40;99.90;;;;;;4985203;28;20023;-66
2022/12/06 11:24:46;;;;;;;34.78;23.52;;;9.30;99.90;;;;;;4986196;28;20030;-65
2022/12/06 11:27:16;;;;;;;39.35;23.65;;;9.20;99.90;;;;;;4973346;28;20033;-66
2022/12/06 11:29:46;;;;;;;39.88;21.05;;;9.20;99.90;;;;;;4978929;28;20030;-68
2022/12/06 11:32:14;;;;;;;32.63;22.33;;;9.30;99.90;;;;;;4981124;28;20035;-66
2022/12/06 11:34:50;;;;;;;37.88;24.90;;;9.30;99.90;;;;;;4978128;28;20046;-66
2022/12/06 11:37:35;;;;;;;33.55;21.27;;;9.20;99.90;;;;;;4980969;28;20061;-67
2022/12/06 11:40:29;;;;;;;35.05;22.65;;;9.10;99.90;;;;;;4973004;28;20390;-68
2022/12/06 11:42:59;;;;;;;38.05;23.70;;;9.20;99.90;;;;;;4952493;28;20027;-67
2022/12/06 11:45:30;;;;;;;36.15;21.73;;;9.10;99.90;;;;;;4973633;28;20094;-67
2022/12/06 11:47:58;;;;;;;32.42;21.52;;;9.10;99.90;;;;;;4974026;28;20035;-67
2022/12/06 11:50:33;;;;;;;34.20;21.40;;;9.20;99.90;;;;;;4975639;28;20116;-66
2022/12/06 11:53:06;;;;;;;35.47;22.52;;;9.10;99.90;;;;;;4978660;28;20053;-67
2022/12/06 11:55:43;;;;;;;39.67;25.40;;;9.20;99.90;;;;;;4984216;28;20042;-68
2022/12/06 11:58:35;;;;;;;34.08;24.88;;;9.10;99.90;;;;;;4975207;28;20459;-67
2022/12/06 12:01:13;;;;;;;31.98;21.73;;;9.00;99.90;;;;;;4988418;28;20030;-67
2022/12/06 12:03:47;;;;;;;33.85;21.70;;;8.90;99.90;;;;;;4975515;28;20065;-65
2022/12/06 12:06:22;;;;;;;34.92;22.90;;;8.80;99.90;;;;;;4979822;28;20048;-66
2022/12/06 12:09:05;;;;;;;35.50;21.75;;;8.80;99.90;;;;;;4989583;28;20480;-67
2022/12/06 12:11:40;;;;;;;38.13;24.05;;;8.80;99.90;;;;;;4972574;28;20035;-66
2022/12/06 12:14:25;;;;;;;39.05;25.58;;;8.70;99.90;;;;;;4988406;28;20484;-67
2022/12/06 12:17:07;;;;;;;56.40;35.97;;;8.70;99.90;;;;;;4991960;28;20030;-67
2022/12/06 12:19:50;;;;;;;38.72;23.67;;;8.70;99.90;;;;;;4985371;28;20125;-69
2022/12/06 12:22:25;;;;;;;38.25;23.02;;;8.50;99.90;;;;;;4985119;28;20045;-69
2022/12/06 12:24:59;;;;;;;37.50;22.42;;;8.40;99.90;;;;;;4980084;28;20035;-67
2022/12/06 12:27:31;;;;;;;40.55;23.38;;;8.40;99.90;;;;;;4972174;28;20478;-64
2022/12/06 12:30:17;;;;;;;38.67;27.30;;;8.30;99.90;;;;;;4978798;28;20373;-66
2022/12/06 12:32:44;;;;;;;39.22;25.90;;;8.20;99.90;;;;;;4923701;29;20059;-67
2022/12/06 12:35:28;;;;;;;39.67;26.48;;;8.30;99.90;;;;;;4925370;29;20035;-65
2022/12/06 12:38:09;;;;;;;36.97;24.58;;;8.30;99.90;;;;;;4920185;29;20087;-65
2022/12/06 12:41:11;;;;;;;35.50;25.92;;;8.20;99.90;;;;;;4931337;29;20067;-66
2022/12/06 12:43:38;;;;;;;39.78;27.02;;;8.30;99.90;;;;;;4906108;29;20368;-65
2022/12/06 12:46:09;;;;;;;44.55;29.88;;;8.30;99.90;;;;;;4930787;29;20031;-66
2022/12/06 12:48:37;;;;;;;41.67;30.10;;;8.20;99.90;;;;;;4931380;29;20031;-67
2022/12/06 12:51:24;;;;;;;40.85;29.38;;;8.30;99.90;;;;;;4930873;29;20051;-66
2022/12/06 12:54:00;;;;;;;43.95;27.48;;;8.30;99.90;;;;;;4930551;29;20087;-66
2022/12/06 12:56:27;;;;;;;45.88;28.58;;;8.30;99.90;;;;;;4918443;29;20048;-66
2022/12/06 12:58:55;;;;;;;40.88;29.60;;;8.30;99.90;;;;;;4930698;29;20031;-67
2022/12/06 13:01:23;;;;;;;42.72;29.35;;;8.30;99.90;;;;;;4931254;29;20478;-65
2022/12/06 13:04:01;;;;;;;45.63;30.35;;;8.40;99.90;;;;;;4930993;29;20039;-65
2022/12/06 13:06:37;;;;;;;42.28;27.83;;;8.40;99.90;;;;;;4931202;29;20407;-66
2022/12/06 13:09:04;;;;;;;40.65;27.35;;;8.60;99.90;;;;;;4938775;28;20038;-66
2022/12/06 13:11:32;;;;;;;40.20;28.30;;;8.70;99.90;;;;;;4981712;28;20030;-67
2022/12/06 13:13:59;;;;;;;36.75;24.60;;;8.70;99.90;;;;;;4975343;28;20492;-66
2022/12/06 13:16:34;;;;;;;34.78;24.08;;;8.80;99.90;;;;;;4980321;28;20066;-65
2022/12/06 13:19:01;;;;;;;38.97;25.23;;;8.80;99.90;;;;;;4976372;28;20081;-66
2022/12/06 13:21:35;;;;;;;43.28;29.52;;;8.80;99.90;;;;;;4980085;28;20026;-65
2022/12/06 13:24:09;;;;;;;55.58;38.63;;;8.90;99.90;;;;;;4976151;28;20053;-66
2022/12/06 13:27:04;;;;;;;62.67;39.38;;;8.90;99.90;;;;;;4980302;28;20385;-66